sensor_id;sensor_type;location;lat;lon;timestamp;pressure;altitude;pressure_sealevel;temperature;humidity
59608;BME280;45426;44.726;10.390;2023-02-27T00:00:59;100182.44;;;8.48;100.00
59608;BME280;45426;44.726;10.390;2023-02-27T00:03:25;100195.34;;;8.81;100.00
59608;BME280;45426;44.726;10.390;2023-02-27T00:05:51;100196.13;;;8.43;100.00
59608;BME280;45426;44.726;10.390;2023-02-27T00:08:16;100187.06;;;8.47;100.00
59608;BME280;45426;44.726;10.390;2023-02-27T00:10:42;100194.22;;;8.43;100.00
59608;BME280;45426;44.726;10.390;2023-02-27T00:13:07;100198.88;;;8.08;100.00
59608;BME280;45426;44.726;10.390;2023-02-27T00:15:34;100200.63;;;8.77;100.00
59608;BME280;45426;44.726;10.390;2023-02-27T00:18:01;100204.78;;;8.74;100.00
59608;BME280;45426;44.726;10.390;2023-02-27T00:20:26;100214.25;;;8.51;100.00
59608;BME280;45426;44.726;10.390;2023-02-27T00:22:52;100216.56;;;8.79;100.00
59608;BME280;45426;44.726;10.390;2023-02-27T00:25:18;100212.75;;;9.09;100.00
59608;BME280;45426;44.726;10.390;2023-02-27T00:27:43;100207.69;;;8.99;100.00
59608;BME280;45426;44.726;10.390;2023-02-27T00:30:12;100206.53;;;9.09;100.00
59608;BME280;45426;44.726;10.390;2023-02-27T00:32:38;100214.41;;;8.54;100.00
59608;BME280;45426;44.726;10.390;2023-02-27T00:35:04;100216.97;;;8.51;100.00
59608;BME280;45426;44.726;10.390;2023-02-27T00:37:30;100217.00;;;8.25;100.00
59608;BME280;45426;44.726;10.390;2023-02-27T00:39:56;100219.25;;;8.05;100.00
59608;BME280;45426;44.726;10.390;2023-02-27T00:42:21;100218.47;;;8.78;100.00
59608;BME280;45426;44.726;10.390;2023-02-27T00:44:46;100214.59;;;8.32;100.00
59608;BME280;45426;44.726;10.390;2023-02-27T00:47:12;100217.47;;;8.53;100.00
59608;BME280;45426;44.726;10.390;2023-02-27T00:49:37;100228.06;;;8.76;100.00
59608;BME280;45426;44.726;10.390;2023-02-27T00:52:03;100232.34;;;8.77;100.00
59608;BME280;45426;44.726;10.390;2023-02-27T00:54:28;100240.09;;;7.96;100.00
59608;BME280;45426;44.726;10.390;2023-02-27T00:56:54;100245.66;;;8.17;100.00
59608;BME280;45426;44.726;10.390;2023-02-27T00:59:19;100243.88;;;8.39;100.00
59608;BME280;45426;44.726;10.390;2023-02-27T01:01:45;100252.66;;;8.09;100.00
59608;BME280;45426;44.726;10.390;2023-02-27T01:04:11;100249.47;;;8.33;100.00
59608;BME280;45426;44.726;10.390;2023-02-27T01:06:37;100260.31;;;7.81;100.00
59608;BME280;45426;44.726;10.390;2023-02-27T01:09:02;100258.53;;;7.59;100.00
59608;BME280;45426;44.726;10.390;2023-02-27T01:11:28;100252.03;;;8.47;100.00
59608;BME280;45426;44.726;10.390;2023-02-27T01:13:54;100246.75;;;7.55;100.00
59608;BME280;45426;44.726;10.390;2023-02-27T01:16:19;100250.28;;;8.08;100.00
59608;BME280;45426;44.726;10.390;2023-02-27T01:18:44;100248.84;;;8.19;100.00
59608;BME280;45426;44.726;10.390;2023-02-27T01:21:10;100258.09;;;8.09;100.00
59608;BME280;45426;44.726;10.390;2023-02-27T01:23:35;100251.38;;;8.50;100.00
59608;BME280;45426;44.726;10.390;2023-02-27T01:26:01;100255.06;;;8.46;100.00
59608;BME280;45426;44.726;10.390;2023-02-27T01:28:26;100265.72;;;7.81;100.00
59608;BME280;45426;44.726;10.390;2023-02-27T01:30:51;100264.72;;;7.51;100.00
59608;BME280;45426;44.726;10.390;2023-02-27T01:33:17;100263.00;;;8.51;100.00
59608;BME280;45426;44.726;10.390;2023-02-27T01:35:42;100266.47;;;8.60;100.00
59608;BME280;45426;44.726;10.390;2023-02-27T01:38:08;100269.88;;;7.96;100.00
59608;BME280;45426;44.726;10.390;2023-02-27T01:40:38;100274.56;;;7.38;100.00
59608;BME280;45426;44.726;10.390;2023-02-27T01:43:04;100273.03;;;7.81;100.00
59608;BME280;45426;44.726;10.390;2023-02-27T01:45:48;100269.13;;;7.29;100.00
59608;BME280;45426;44.726;10.390;2023-02-27T01:50:49;100279.22;;;7.64;100.00
59608;BME280;45426;44.726;10.390;2023-02-27T01:53:16;100282.56;;;8.39;100.00
59608;BME280;45426;44.726;10.390;2023-02-27T01:55:42;100282.28;;;7.97;100.00
59608;BME280;45426;44.726;10.390;2023-02-27T01:58:11;100286.50;;;7.37;100.00
59608;BME280;45426;44.726;10.390;2023-02-27T02:00:37;100294.78;;;7.49;100.00
59608;BME280;45426;44.726;10.390;2023-02-27T02:03:06;100286.72;;;7.93;100.00
59608;BME280;45426;44.726;10.390;2023-02-27T02:05:33;100279.72;;;7.83;100.00
59608;BME280;45426;44.726;10.390;2023-02-27T02:08:00;100280.06;;;8.25;100.00
59608;BME280;45426;44.726;10.390;2023-02-27T02:10:26;100272.56;;;8.57;100.00
59608;BME280;45426;44.726;10.390;2023-02-27T02:12:52;100279.91;;;8.48;100.00
59608;BME280;45426;44.726;10.390;2023-02-27T02:15:20;100283.53;;;7.91;100.00
59608;BME280;45426;44.726;10.390;2023-02-27T02:18:00;100280.53;;;7.75;100.00
59608;BME280;45426;44.726;10.390;2023-02-27T02:43:36;100313.44;;;7.19;100.00
59608;BME280;45426;44.726;10.390;2023-02-27T02:46:15;100310.06;;;7.63;100.00
59608;BME280;45426;44.726;10.390;2023-02-27T02:49:02;100315.44;;;7.45;100.00
59608;BME280;45426;44.726;10.390;2023-02-27T02:51:44;100311.13;;;7.44;100.00
59608;BME280;45426;44.726;10.390;2023-02-27T02:54:18;100324.28;;;7.77;100.00
59608;BME280;45426;44.726;10.390;2023-02-27T02:59:36;100326.88;;;7.42;100.00
59608;BME280;45426;44.726;10.390;2023-02-27T03:02:09;100335.19;;;7.54;100.00
59608;BME280;45426;44.726;10.390;2023-02-27T03:04:47;100329.38;;;8.13;100.00
59608;BME280;45426;44.726;10.390;2023-02-27T03:07:27;100332.28;;;7.42;100.00
59608;BME280;45426;44.726;10.390;2023-02-27T03:10:08;100334.22;;;7.10;100.00
59608;BME280;45426;44.726;10.390;2023-02-27T03:12:38;100335.88;;;6.89;100.00
59608;BME280;45426;44.726;10.390;2023-02-27T03:15:17;100336.44;;;7.48;100.00
59608;BME280;45426;44.726;10.390;2023-02-27T03:18:02;100345.31;;;8.15;100.00
59608;BME280;45426;44.726;10.390;2023-02-27T03:20:39;100344.19;;;8.33;100.00
59608;BME280;45426;44.726;10.390;2023-02-27T03:23:10;100346.22;;;7.75;100.00
59608;BME280;45426;44.726;10.390;2023-02-27T03:25:38;100351.19;;;7.42;100.00
59608;BME280;45426;44.726;10.390;2023-02-27T03:28:07;100351.00;;;7.87;100.00
59608;BME280;45426;44.726;10.390;2023-02-27T03:30:39;100348.16;;;7.84;100.00
59608;BME280;45426;44.726;10.390;2023-02-27T03:33:14;100350.22;;;7.78;100.00
59608;BME280;45426;44.726;10.390;2023-02-27T03:35:58;100357.31;;;7.25;100.00
59608;BME280;45426;44.726;10.390;2023-02-27T03:38:49;100358.06;;;7.48;100.00
59608;BME280;45426;44.726;10.390;2023-02-27T03:44:12;100363.66;;;8.44;100.00
59608;BME280;45426;44.726;10.390;2023-02-27T03:46:39;100365.78;;;7.01;100.00
59608;BME280;45426;44.726;10.390;2023-02-27T03:49:05;100369.97;;;7.07;100.00
59608;BME280;45426;44.726;10.390;2023-02-27T03:51:31;100368.09;;;6.85;100.00
59608;BME280;45426;44.726;10.390;2023-02-27T03:54:20;100366.63;;;6.79;100.00
59608;BME280;45426;44.726;10.390;2023-02-27T03:56:51;100368.38;;;7.37;100.00
59608;BME280;45426;44.726;10.390;2023-02-27T03:59:21;100367.53;;;7.28;100.00
59608;BME280;45426;44.726;10.390;2023-02-27T04:01:48;100378.44;;;6.92;100.00
59608;BME280;45426;44.726;10.390;2023-02-27T04:04:16;100384.34;;;7.25;100.00
59608;BME280;45426;44.726;10.390;2023-02-27T04:06:48;100380.66;;;6.90;100.00
59608;BME280;45426;44.726;10.390;2023-02-27T04:20:21;100399.09;;;9.12;100.00
59608;BME280;45426;44.726;10.390;2023-02-27T04:22:58;100394.22;;;9.44;100.00
59608;BME280;45426;44.726;10.390;2023-02-27T04:28:13;100397.13;;;9.39;100.00
59608;BME280;45426;44.726;10.390;2023-02-27T04:31:13;100398.66;;;8.93;100.00
59608;BME280;45426;44.726;10.390;2023-02-27T04:33:45;100395.66;;;8.94;100.00
59608;BME280;45426;44.726;10.390;2023-02-27T04:36:22;100401.16;;;9.24;100.00
59608;BME280;45426;44.726;10.390;2023-02-27T04:39:18;100405.97;;;9.01;100.00
59608;BME280;45426;44.726;10.390;2023-02-27T04:41:43;100406.78;;;9.02;100.00
59608;BME280;45426;44.726;10.390;2023-02-27T04:44:11;100411.06;;;9.59;100.00
59608;BME280;45426;44.726;10.390;2023-02-27T04:46:40;100408.06;;;9.04;100.00
59608;BME280;45426;44.726;10.390;2023-02-27T04:49:20;100409.25;;;9.33;100.00
59608;BME280;45426;44.726;10.390;2023-02-27T04:51:58;100408.53;;;8.98;100.00
59608;BME280;45426;44.726;10.390;2023-02-27T04:54:30;100420.84;;;8.78;100.00
59608;BME280;45426;44.726;10.390;2023-02-27T04:57:01;100416.19;;;8.96;100.00
59608;BME280;45426;44.726;10.390;2023-02-27T04:59:41;100424.81;;;8.89;100.00
59608;BME280;45426;44.726;10.390;2023-02-27T05:02:28;100414.66;;;9.42;100.00
59608;BME280;45426;44.726;10.390;2023-02-27T05:04:59;100418.22;;;8.20;100.00
59608;BME280;45426;44.726;10.390;2023-02-27T05:07:31;100421.97;;;8.59;100.00
59608;BME280;45426;44.726;10.390;2023-02-27T05:10:20;100423.00;;;9.28;100.00
59608;BME280;45426;44.726;10.390;2023-02-27T05:12:53;100428.19;;;9.50;100.00
59608;BME280;45426;44.726;10.390;2023-02-27T05:15:29;100433.34;;;9.35;100.00
59608;BME280;45426;44.726;10.390;2023-02-27T05:18:03;100432.28;;;9.09;100.00
59608;BME280;45426;44.726;10.390;2023-02-27T05:20:34;100433.75;;;9.54;100.00
59608;BME280;45426;44.726;10.390;2023-02-27T05:23:13;100433.25;;;9.61;100.00
59608;BME280;45426;44.726;10.390;2023-02-27T05:25:57;100441.63;;;9.38;100.00
59608;BME280;45426;44.726;10.390;2023-02-27T05:29:00;100444.50;;;8.28;100.00
59608;BME280;45426;44.726;10.390;2023-02-27T05:31:37;100440.81;;;9.38;100.00
59608;BME280;45426;44.726;10.390;2023-02-27T05:34:11;100449.16;;;8.36;100.00
59608;BME280;45426;44.726;10.390;2023-02-27T05:36:46;100442.84;;;9.49;100.00
59608;BME280;45426;44.726;10.390;2023-02-27T05:39:16;100449.19;;;8.45;100.00
59608;BME280;45426;44.726;10.390;2023-02-27T05:41:49;100445.78;;;8.22;100.00
59608;BME280;45426;44.726;10.390;2023-02-27T05:44:19;100452.22;;;8.61;100.00
59608;BME280;45426;44.726;10.390;2023-02-27T05:46:55;100454.50;;;8.10;100.00
59608;BME280;45426;44.726;10.390;2023-02-27T05:49:25;100460.16;;;8.40;100.00
59608;BME280;45426;44.726;10.390;2023-02-27T05:51:54;100460.41;;;8.12;100.00
59608;BME280;45426;44.726;10.390;2023-02-27T05:56:56;100461.47;;;8.95;100.00
59608;BME280;45426;44.726;10.390;2023-02-27T06:01:51;100477.50;;;8.30;100.00
59608;BME280;45426;44.726;10.390;2023-02-27T06:04:17;100479.88;;;8.41;100.00
59608;BME280;45426;44.726;10.390;2023-02-27T06:06:43;100482.50;;;9.07;100.00
59608;BME280;45426;44.726;10.390;2023-02-27T06:09:08;100479.59;;;8.51;100.00
59608;BME280;45426;44.726;10.390;2023-02-27T06:11:34;100473.56;;;8.54;100.00
59608;BME280;45426;44.726;10.390;2023-02-27T06:13:59;100481.06;;;8.83;100.00
59608;BME280;45426;44.726;10.390;2023-02-27T06:16:25;100481.53;;;8.77;100.00
59608;BME280;45426;44.726;10.390;2023-02-27T06:18:51;100487.41;;;8.52;100.00
59608;BME280;45426;44.726;10.390;2023-02-27T06:21:16;100496.03;;;8.46;100.00
59608;BME280;45426;44.726;10.390;2023-02-27T06:23:42;100484.88;;;9.08;100.00
59608;BME280;45426;44.726;10.390;2023-02-27T06:26:07;100492.75;;;9.57;100.00
59608;BME280;45426;44.726;10.390;2023-02-27T06:28:37;100496.69;;;9.77;100.00
59608;BME280;45426;44.726;10.390;2023-02-27T06:31:03;100501.22;;;9.56;100.00
59608;BME280;45426;44.726;10.390;2023-02-27T06:33:29;100505.13;;;9.20;100.00
59608;BME280;45426;44.726;10.390;2023-02-27T06:35:54;100514.09;;;9.76;100.00
59608;BME280;45426;44.726;10.390;2023-02-27T06:38:19;100509.19;;;9.61;100.00
59608;BME280;45426;44.726;10.390;2023-02-27T06:40:45;100516.47;;;9.78;100.00
59608;BME280;45426;44.726;10.390;2023-02-27T06:43:10;100526.50;;;10.24;100.00
59608;BME280;45426;44.726;10.390;2023-02-27T06:45:36;100526.56;;;10.16;100.00
59608;BME280;45426;44.726;10.390;2023-02-27T06:48:01;100526.13;;;10.05;100.00
59608;BME280;45426;44.726;10.390;2023-02-27T06:50:27;100535.31;;;10.21;100.00
59608;BME280;45426;44.726;10.390;2023-02-27T06:52:52;100539.28;;;9.85;100.00
59608;BME280;45426;44.726;10.390;2023-02-27T06:55:18;100544.19;;;10.01;100.00
59608;BME280;45426;44.726;10.390;2023-02-27T06:57:47;100550.09;;;9.21;100.00
59608;BME280;45426;44.726;10.390;2023-02-27T07:00:13;100549.81;;;9.87;100.00
59608;BME280;45426;44.726;10.390;2023-02-27T07:02:39;100547.13;;;10.25;100.00
59608;BME280;45426;44.726;10.390;2023-02-27T07:05:05;100556.53;;;10.28;100.00
59608;BME280;45426;44.726;10.390;2023-02-27T07:07:31;100555.34;;;9.52;100.00
59608;BME280;45426;44.726;10.390;2023-02-27T07:09:57;100564.25;;;9.52;100.00
59608;BME280;45426;44.726;10.390;2023-02-27T07:12:22;100573.63;;;9.81;100.00
59608;BME280;45426;44.726;10.390;2023-02-27T07:14:48;100574.44;;;10.20;100.00
59608;BME280;45426;44.726;10.390;2023-02-27T07:17:13;100568.09;;;10.07;100.00
59608;BME280;45426;44.726;10.390;2023-02-27T07:19:38;100575.84;;;10.26;100.00
59608;BME280;45426;44.726;10.390;2023-02-27T07:22:04;100577.78;;;9.70;100.00
59608;BME280;45426;44.726;10.390;2023-02-27T07:24:29;100575.53;;;10.28;100.00
59608;BME280;45426;44.726;10.390;2023-02-27T07:26:55;100574.63;;;9.50;100.00
59608;BME280;45426;44.726;10.390;2023-02-27T07:29:20;100577.47;;;10.27;100.00
59608;BME280;45426;44.726;10.390;2023-02-27T07:31:46;100578.25;;;9.89;100.00
59608;BME280;45426;44.726;10.390;2023-02-27T07:34:11;100587.34;;;9.76;100.00
59608;BME280;45426;44.726;10.390;2023-02-27T07:36:38;100582.47;;;9.43;100.00
59608;BME280;45426;44.726;10.390;2023-02-27T07:39:04;100571.75;;;10.11;100.00
59608;BME280;45426;44.726;10.390;2023-02-27T07:41:30;100593.47;;;9.38;100.00
59608;BME280;45426;44.726;10.390;2023-02-27T07:43:56;100594.09;;;9.44;100.00
59608;BME280;45426;44.726;10.390;2023-02-27T07:46:21;100594.53;;;9.81;100.00
59608;BME280;45426;44.726;10.390;2023-02-27T07:48:49;100596.31;;;9.33;100.00
59608;BME280;45426;44.726;10.390;2023-02-27T07:51:14;100588.03;;;9.29;100.00
59608;BME280;45426;44.726;10.390;2023-02-27T07:53:40;100598.41;;;9.27;100.00
59608;BME280;45426;44.726;10.390;2023-02-27T07:56:05;100605.72;;;9.53;100.00
59608;BME280;45426;44.726;10.390;2023-02-27T07:58:31;100599.03;;;9.07;100.00
59608;BME280;45426;44.726;10.390;2023-02-27T08:00:56;100613.50;;;8.76;100.00
59608;BME280;45426;44.726;10.390;2023-02-27T08:03:22;100609.97;;;9.89;100.00
59608;BME280;45426;44.726;10.390;2023-02-27T08:05:47;100611.63;;;9.11;100.00
59608;BME280;45426;44.726;10.390;2023-02-27T08:08:13;100612.25;;;9.61;100.00
59608;BME280;45426;44.726;10.390;2023-02-27T08:10:38;100609.41;;;9.57;100.00
59608;BME280;45426;44.726;10.390;2023-02-27T08:13:03;100610.50;;;9.39;100.00
59608;BME280;45426;44.726;10.390;2023-02-27T08:15:29;100609.50;;;10.04;100.00
59608;BME280;45426;44.726;10.390;2023-02-27T08:17:56;100607.94;;;9.68;100.00
59608;BME280;45426;44.726;10.390;2023-02-27T08:20:22;100604.00;;;9.22;100.00
59608;BME280;45426;44.726;10.390;2023-02-27T08:22:48;100610.69;;;9.07;100.00
59608;BME280;45426;44.726;10.390;2023-02-27T08:25:13;100612.91;;;9.40;100.00
59608;BME280;45426;44.726;10.390;2023-02-27T08:27:39;100625.72;;;8.65;100.00
59608;BME280;45426;44.726;10.390;2023-02-27T08:30:06;100621.84;;;9.32;100.00
59608;BME280;45426;44.726;10.390;2023-02-27T08:32:32;100617.22;;;9.59;100.00
59608;BME280;45426;44.726;10.390;2023-02-27T08:34:58;100623.91;;;9.00;100.00
59608;BME280;45426;44.726;10.390;2023-02-27T08:37:23;100626.56;;;8.83;100.00
59608;BME280;45426;44.726;10.390;2023-02-27T08:39:49;100623.97;;;8.69;100.00
59608;BME280;45426;44.726;10.390;2023-02-27T08:42:14;100625.34;;;9.06;100.00
59608;BME280;45426;44.726;10.390;2023-02-27T08:44:40;100633.19;;;9.17;100.00
59608;BME280;45426;44.726;10.390;2023-02-27T08:47:06;100632.88;;;9.62;100.00
59608;BME280;45426;44.726;10.390;2023-02-27T08:49:31;100629.03;;;9.19;100.00
59608;BME280;45426;44.726;10.390;2023-02-27T08:51:57;100635.28;;;8.62;100.00
59608;BME280;45426;44.726;10.390;2023-02-27T08:54:22;100634.13;;;9.29;100.00
59608;BME280;45426;44.726;10.390;2023-02-27T08:56:48;100643.47;;;8.80;100.00
59608;BME280;45426;44.726;10.390;2023-02-27T08:59:14;100651.25;;;8.72;100.00
59608;BME280;45426;44.726;10.390;2023-02-27T09:01:39;100650.88;;;9.23;100.00
59608;BME280;45426;44.726;10.390;2023-02-27T09:04:05;100647.22;;;9.36;100.00
59608;BME280;45426;44.726;10.390;2023-02-27T09:06:32;100657.81;;;8.89;100.00
59608;BME280;45426;44.726;10.390;2023-02-27T09:08:58;100654.59;;;8.78;100.00
59608;BME280;45426;44.726;10.390;2023-02-27T09:11:24;100658.66;;;8.98;100.00
59608;BME280;45426;44.726;10.390;2023-02-27T09:13:50;100667.63;;;9.51;100.00
59608;BME280;45426;44.726;10.390;2023-02-27T09:16:18;100661.59;;;9.54;100.00
59608;BME280;45426;44.726;10.390;2023-02-27T09:18:44;100665.47;;;8.87;100.00
59608;BME280;45426;44.726;10.390;2023-02-27T09:21:09;100668.44;;;9.51;100.00
59608;BME280;45426;44.726;10.390;2023-02-27T09:23:35;100665.81;;;9.03;100.00
59608;BME280;45426;44.726;10.390;2023-02-27T09:26:00;100665.41;;;8.69;100.00
59608;BME280;45426;44.726;10.390;2023-02-27T09:28:26;100667.00;;;8.70;100.00
59608;BME280;45426;44.726;10.390;2023-02-27T09:30:51;100670.91;;;8.96;100.00
59608;BME280;45426;44.726;10.390;2023-02-27T09:33:17;100663.13;;;9.11;100.00
59608;BME280;45426;44.726;10.390;2023-02-27T09:35:42;100668.81;;;10.32;100.00
59608;BME280;45426;44.726;10.390;2023-02-27T09:38:07;100671.94;;;9.43;100.00
59608;BME280;45426;44.726;10.390;2023-02-27T09:40:39;100682.44;;;8.61;100.00
59608;BME280;45426;44.726;10.390;2023-02-27T09:43:20;100690.69;;;8.33;100.00
59608;BME280;45426;44.726;10.390;2023-02-27T09:45:51;100696.41;;;8.54;100.00
59608;BME280;45426;44.726;10.390;2023-02-27T09:50:54;100695.97;;;8.61;100.00
59608;BME280;45426;44.726;10.390;2023-02-27T09:53:25;100691.06;;;9.21;100.00
59608;BME280;45426;44.726;10.390;2023-02-27T09:55:53;100695.22;;;9.97;100.00
59608;BME280;45426;44.726;10.390;2023-02-27T09:58:49;100697.22;;;8.95;100.00
59608;BME280;45426;44.726;10.390;2023-02-27T10:01:26;100693.28;;;10.06;100.00
59608;BME280;45426;44.726;10.390;2023-02-27T10:04:23;100698.72;;;9.36;100.00
59608;BME280;45426;44.726;10.390;2023-02-27T10:09:51;100705.91;;;9.49;100.00
59608;BME280;45426;44.726;10.390;2023-02-27T10:12:37;100703.03;;;10.33;100.00
59608;BME280;45426;44.726;10.390;2023-02-27T10:15:14;100696.03;;;9.97;100.00
59608;BME280;45426;44.726;10.390;2023-02-27T10:17:47;100703.03;;;9.46;100.00
59608;BME280;45426;44.726;10.390;2023-02-27T10:20:26;100705.28;;;9.61;100.00
59608;BME280;45426;44.726;10.390;2023-02-27T10:22:54;100708.53;;;10.54;100.00
59608;BME280;45426;44.726;10.390;2023-02-27T10:25:20;100712.47;;;10.01;100.00
59608;BME280;45426;44.726;10.390;2023-02-27T10:27:49;100719.84;;;9.65;100.00
59608;BME280;45426;44.726;10.390;2023-02-27T10:30:27;100706.06;;;10.05;100.00
59608;BME280;45426;44.726;10.390;2023-02-27T10:33:08;100716.94;;;9.36;100.00
59608;BME280;45426;44.726;10.390;2023-02-27T10:35:40;100712.25;;;9.27;100.00
59608;BME280;45426;44.726;10.390;2023-02-27T10:41:19;100719.03;;;9.56;100.00
59608;BME280;45426;44.726;10.390;2023-02-27T10:43:46;100720.94;;;9.99;100.00
59608;BME280;45426;44.726;10.390;2023-02-27T10:46:16;100727.00;;;9.96;100.00
59608;BME280;45426;44.726;10.390;2023-02-27T10:48:43;100715.97;;;9.49;100.00
59608;BME280;45426;44.726;10.390;2023-02-27T10:51:27;100723.34;;;10.01;100.00
59608;BME280;45426;44.726;10.390;2023-02-27T10:54:29;100723.75;;;10.38;100.00
59608;BME280;45426;44.726;10.390;2023-02-27T10:56:57;100722.66;;;9.51;100.00
59608;BME280;45426;44.726;10.390;2023-02-27T10:59:28;100715.81;;;10.06;100.00
59608;BME280;45426;44.726;10.390;2023-02-27T11:01:59;100723.59;;;10.52;100.00
59608;BME280;45426;44.726;10.390;2023-02-27T11:04:31;100720.78;;;9.61;100.00
59608;BME280;45426;44.726;10.390;2023-02-27T11:06:59;100719.94;;;9.34;100.00
59608;BME280;45426;44.726;10.390;2023-02-27T11:09:32;100715.00;;;10.06;100.00
59608;BME280;45426;44.726;10.390;2023-02-27T11:12:19;100711.72;;;10.56;100.00
59608;BME280;45426;44.726;10.390;2023-02-27T11:17:42;100718.56;;;10.71;100.00
59608;BME280;45426;44.726;10.390;2023-02-27T11:20:36;100713.19;;;9.14;100.00
59608;BME280;45426;44.726;10.390;2023-02-27T11:23:18;100708.06;;;10.52;100.00
59608;BME280;45426;44.726;10.390;2023-02-27T11:25:44;100714.34;;;10.26;100.00
59608;BME280;45426;44.726;10.390;2023-02-27T11:28:36;100705.25;;;10.78;100.00
59608;BME280;45426;44.726;10.390;2023-02-27T11:31:04;100706.56;;;9.99;100.00
59608;BME280;45426;44.726;10.390;2023-02-27T11:33:37;100713.09;;;10.15;100.00
59608;BME280;45426;44.726;10.390;2023-02-27T11:36:04;100711.31;;;10.28;100.00
59608;BME280;45426;44.726;10.390;2023-02-27T11:38:30;100710.41;;;9.63;100.00
59608;BME280;45426;44.726;10.390;2023-02-27T11:41:01;100706.56;;;9.64;100.00
59608;BME280;45426;44.726;10.390;2023-02-27T11:43:48;100697.94;;;10.05;100.00
59608;BME280;45426;44.726;10.390;2023-02-27T11:46:20;100696.47;;;10.25;100.00
59608;BME280;45426;44.726;10.390;2023-02-27T11:48:48;100694.22;;;10.27;100.00
59608;BME280;45426;44.726;10.390;2023-02-27T11:56:29;100702.72;;;10.00;100.00
59608;BME280;45426;44.726;10.390;2023-02-27T12:04:39;100699.63;;;10.45;100.00
59608;BME280;45426;44.726;10.390;2023-02-27T12:10:03;100686.25;;;10.14;100.00
59608;BME280;45426;44.726;10.390;2023-02-27T12:12:35;100686.63;;;9.60;100.00
59608;BME280;45426;44.726;10.390;2023-02-27T12:15:23;100683.56;;;9.96;100.00
59608;BME280;45426;44.726;10.390;2023-02-27T12:20:48;100685.31;;;11.04;100.00
59608;BME280;45426;44.726;10.390;2023-02-27T12:23:25;100681.91;;;10.30;100.00
59608;BME280;45426;44.726;10.390;2023-02-27T12:25:58;100676.88;;;10.97;100.00
59608;BME280;45426;44.726;10.390;2023-02-27T12:28:51;100682.09;;;10.25;100.00
59608;BME280;45426;44.726;10.390;2023-02-27T12:34:00;100686.38;;;10.43;100.00
59608;BME280;45426;44.726;10.390;2023-02-27T12:36:28;100688.66;;;10.15;100.00
59608;BME280;45426;44.726;10.390;2023-02-27T12:38:53;100692.66;;;10.00;100.00
59608;BME280;45426;44.726;10.390;2023-02-27T12:44:54;100683.72;;;9.39;100.00
59608;BME280;45426;44.726;10.390;2023-02-27T12:47:29;100687.56;;;9.81;100.00
59608;BME280;45426;44.726;10.390;2023-02-27T12:50:09;100686.88;;;10.37;100.00
59608;BME280;45426;44.726;10.390;2023-02-27T12:52:54;100683.94;;;10.51;100.00
59608;BME280;45426;44.726;10.390;2023-02-27T12:55:26;100683.84;;;11.06;100.00
59608;BME280;45426;44.726;10.390;2023-02-27T13:01:22;100683.69;;;10.17;100.00
59608;BME280;45426;44.726;10.390;2023-02-27T13:15:03;100678.47;;;10.68;100.00
59608;BME280;45426;44.726;10.390;2023-02-27T13:20:06;100684.47;;;11.75;100.00
59608;BME280;45426;44.726;10.390;2023-02-27T13:25:17;100679.69;;;11.72;100.00
59608;BME280;45426;44.726;10.390;2023-02-27T13:27:54;100682.00;;;12.49;100.00
59608;BME280;45426;44.726;10.390;2023-02-27T13:36:04;100695.28;;;10.53;100.00
59608;BME280;45426;44.726;10.390;2023-02-27T13:43:46;100690.69;;;10.36;100.00
59608;BME280;45426;44.726;10.390;2023-02-27T13:46:32;100681.00;;;11.24;100.00
59608;BME280;45426;44.726;10.390;2023-02-27T13:56:46;100683.69;;;11.75;100.00
59608;BME280;45426;44.726;10.390;2023-02-27T14:04:25;100696.16;;;11.97;100.00
59608;BME280;45426;44.726;10.390;2023-02-27T14:07:00;100687.66;;;11.98;100.00
59608;BME280;45426;44.726;10.390;2023-02-27T14:09:33;100689.38;;;11.19;100.00
59608;BME280;45426;44.726;10.390;2023-02-27T14:12:01;100685.66;;;11.23;100.00
59608;BME280;45426;44.726;10.390;2023-02-27T14:14:45;100676.44;;;11.79;100.00
59608;BME280;45426;44.726;10.390;2023-02-27T14:17:17;100683.94;;;12.03;100.00
59608;BME280;45426;44.726;10.390;2023-02-27T14:19:58;100687.59;;;11.23;100.00
59608;BME280;45426;44.726;10.390;2023-02-27T14:22:31;100689.38;;;11.19;100.00
59608;BME280;45426;44.726;10.390;2023-02-27T14:25:02;100676.66;;;11.32;100.00
59608;BME280;45426;44.726;10.390;2023-02-27T14:27:49;100682.44;;;11.30;100.00
59608;BME280;45426;44.726;10.390;2023-02-27T14:32:59;100694.94;;;11.85;100.00
59608;BME280;45426;44.726;10.390;2023-02-27T14:35:26;100694.28;;;11.25;100.00
59608;BME280;45426;44.726;10.390;2023-02-27T14:37:52;100697.25;;;11.41;100.00
59608;BME280;45426;44.726;10.390;2023-02-27T14:40:26;100684.78;;;12.16;100.00
59608;BME280;45426;44.726;10.390;2023-02-27T14:45:22;100692.31;;;11.77;100.00
59608;BME280;45426;44.726;10.390;2023-02-27T14:47:48;100684.56;;;10.95;100.00
59608;BME280;45426;44.726;10.390;2023-02-27T14:52:53;100688.66;;;11.31;100.00
59608;BME280;45426;44.726;10.390;2023-02-27T14:55:28;100678.50;;;11.19;100.00
59608;BME280;45426;44.726;10.390;2023-02-27T14:58:17;100683.50;;;11.17;100.00
59608;BME280;45426;44.726;10.390;2023-02-27T15:00:47;100685.44;;;10.78;100.00
59608;BME280;45426;44.726;10.390;2023-02-27T15:03:37;100691.09;;;11.23;100.00
59608;BME280;45426;44.726;10.390;2023-02-27T15:06:12;100685.66;;;11.44;100.00
59608;BME280;45426;44.726;10.390;2023-02-27T15:08:40;100691.22;;;11.06;100.00
59608;BME280;45426;44.726;10.390;2023-02-27T15:11:08;100684.25;;;10.96;100.00